createdAt,value
2023-05-20T00:03:36.740Z,12.44
2023-05-20T00:08:44.872Z,12.50
2023-05-20T00:13:52.849Z,12.55
2023-05-20T00:19:00.923Z,12.46
2023-05-20T00:24:09.467Z,12.44
2023-05-20T00:29:17.516Z,12.46
2023-05-20T00:34:25.515Z,12.37
2023-05-20T00:39:33.818Z,12.36
2023-05-20T00:44:41.866Z,12.31
2023-05-20T00:49:52.545Z,12.19
2023-05-20T00:55:01.167Z,12.17
2023-05-20T01:00:18.017Z,12.20
2023-05-20T01:05:26.017Z,12.20
2023-05-20T01:10:35.374Z,12.12
2023-05-20T01:15:48.341Z,12.15
2023-05-20T01:21:01.885Z,12.24
2023-05-20T01:26:13.921Z,12.17
2023-05-20T01:31:25.936Z,12.17
2023-05-20T01:36:35.172Z,12.26
2023-05-20T01:41:44.167Z,12.29
2023-05-20T01:46:53.437Z,12.22
2023-05-20T01:52:01.888Z,12.23
2023-05-20T01:57:10.282Z,12.31
2023-05-20T02:02:18.446Z,12.29
2023-05-20T02:07:26.579Z,12.20
2023-05-20T02:12:34.717Z,12.23
2023-05-20T02:17:43.832Z,12.32
2023-05-20T02:22:51.893Z,12.27
2023-05-20T02:27:59.905Z,12.29
2023-05-20T02:33:09.955Z,12.31
2023-05-20T02:38:18.090Z,12.25
2023-05-20T02:43:26.138Z,12.20
2023-05-20T02:48:34.126Z,12.31
2023-05-20T02:53:42.184Z,12.32
2023-05-20T02:58:50.325Z,12.23
2023-05-20T03:03:58.468Z,12.19
2023-05-20T03:09:06.564Z,12.29
2023-05-20T03:14:14.610Z,12.31
2023-05-20T03:19:22.758Z,12.23
2023-05-20T03:24:32.375Z,12.20
2023-05-20T03:29:40.402Z,12.25
2023-05-20T03:34:48.403Z,12.23
2023-05-20T03:39:56.495Z,12.23
2023-05-20T03:45:04.796Z,12.26
2023-05-20T03:50:13.441Z,12.30
2023-05-20T03:55:21.425Z,12.28
2023-05-20T04:00:31.561Z,12.18
2023-05-20T04:05:39.856Z,12.26
2023-05-20T04:10:48.046Z,12.42
2023-05-20T04:15:56.090Z,12.45
2023-05-20T04:21:04.713Z,12.39
2023-05-20T04:26:12.946Z,12.35
2023-05-20T04:31:21.370Z,12.46
2023-05-20T04:36:29.846Z,12.42
2023-05-20T04:41:37.904Z,12.43
2023-05-20T04:46:46.271Z,12.45
2023-05-20T04:51:55.736Z,12.56
2023-05-20T04:57:03.729Z,12.51
2023-05-20T05:02:11.786Z,12.43
2023-05-20T05:07:19.824Z,12.53
2023-05-20T05:12:27.755Z,12.58
2023-05-20T05:17:35.863Z,12.61
2023-05-20T05:22:43.866Z,12.56
2023-05-20T05:27:51.862Z,12.57
2023-05-20T05:32:59.951Z,12.70
2023-05-20T05:38:08.102Z,12.65
2023-05-20T05:43:16.475Z,12.66
2023-05-20T05:48:24.841Z,12.74
2023-05-20T05:53:33.019Z,12.78
2023-05-20T05:58:41.203Z,12.76
2023-05-20T06:03:49.746Z,12.69
2023-05-20T06:08:58.181Z,12.92
2023-05-20T06:14:06.299Z,13.08
2023-05-20T06:19:14.657Z,13.12
2023-05-20T06:24:24.485Z,13.13
2023-05-20T06:29:33.306Z,13.31
2023-05-20T06:34:41.440Z,13.45
2023-05-20T06:39:54.089Z,13.52
2023-05-20T06:45:02.602Z,13.54
2023-05-20T06:50:12.273Z,13.69
2023-05-20T06:55:20.495Z,13.87
2023-05-20T07:00:28.548Z,13.97
2023-05-20T07:05:36.697Z,14.09
2023-05-20T07:10:44.927Z,14.30
2023-05-20T07:15:53.275Z,14.50
2023-05-20T07:21:01.356Z,14.44
2023-05-20T07:26:09.468Z,14.59
2023-05-20T07:31:17.972Z,14.85
2023-05-20T07:36:27.554Z,15.08
2023-05-20T07:41:37.813Z,15.19
2023-05-20T07:46:46.086Z,15.28
2023-05-20T07:51:54.027Z,15.36
2023-05-20T07:57:02.284Z,15.34
2023-05-20T08:02:11.079Z,15.34
2023-05-20T08:07:19.176Z,15.53
2023-05-20T08:12:27.258Z,15.69
2023-05-20T08:17:35.501Z,15.75
2023-05-20T08:22:43.499Z,15.90
2023-05-20T08:27:51.501Z,16.01
2023-05-20T08:33:00.135Z,16.05
2023-05-20T08:38:08.201Z,15.85
2023-05-20T08:43:16.378Z,15.87
2023-05-20T08:48:27.913Z,15.95
2023-05-20T08:53:35.881Z,15.88
2023-05-20T08:58:44.397Z,15.86
2023-05-20T09:03:53.169Z,15.76
2023-05-20T09:09:03.063Z,15.72
2023-05-20T09:14:11.388Z,15.82
2023-05-20T09:19:20.440Z,15.78
2023-05-20T09:24:29.419Z,15.63
2023-05-20T09:29:37.414Z,15.64
2023-05-20T09:34:47.782Z,15.74
2023-05-20T09:40:01.220Z,15.75
2023-05-20T09:45:10.612Z,15.79
2023-05-20T09:50:20.989Z,15.67
2023-05-20T09:55:29.434Z,15.82
2023-05-20T10:00:37.708Z,15.95
2023-05-20T10:05:56.131Z,16.08
2023-05-20T10:11:14.898Z,16.20
2023-05-20T10:16:33.110Z,16.45
2023-05-20T10:21:41.117Z,16.57
2023-05-20T10:26:59.194Z,16.70
2023-05-20T10:32:07.805Z,16.81
2023-05-20T10:37:24.273Z,16.81
2023-05-20T10:42:32.454Z,17.13
2023-05-20T10:47:55.743Z,17.37
2023-05-20T10:53:15.697Z,17.43
2023-05-20T10:58:37.608Z,17.72
2023-05-20T11:03:47.339Z,17.90
2023-05-20T11:08:55.932Z,17.82
2023-05-20T11:14:04.080Z,17.96
2023-05-20T11:19:15.800Z,18.50
2023-05-20T11:24:28.898Z,19.03
2023-05-20T11:29:36.958Z,19.48
2023-05-20T11:34:44.980Z,19.82
2023-05-20T11:40:09.558Z,19.90
2023-05-20T11:45:17.785Z,20.34
2023-05-20T11:50:27.280Z,20.55
2023-05-20T11:55:36.139Z,20.53
2023-05-20T12:05:57.684Z,20.54
2023-05-20T12:11:05.686Z,20.64
2023-05-20T12:16:13.766Z,20.83
2023-05-20T12:21:21.854Z,21.62
2023-05-20T12:26:31.422Z,21.49
2023-05-20T12:31:39.500Z,21.21
2023-05-20T12:36:48.551Z,21.62
2023-05-20T12:41:56.504Z,21.68
2023-05-20T12:47:13.415Z,21.70
2023-05-20T12:52:23.015Z,21.96
2023-05-20T12:57:31.388Z,22.24
2023-05-20T13:02:40.301Z,22.37
2023-05-20T13:07:49.105Z,21.97
2023-05-20T13:12:57.464Z,21.62
2023-05-20T13:18:07.140Z,21.89
2023-05-20T13:23:15.338Z,22.21
2023-05-20T13:28:23.382Z,22.32
2023-05-20T13:33:31.791Z,22.35
2023-05-20T13:38:40.242Z,21.91
2023-05-20T13:43:48.224Z,22.34
2023-05-20T13:48:56.266Z,22.18
2023-05-20T13:54:04.399Z,22.22
2023-05-20T13:59:12.470Z,22.41
2023-05-20T14:04:20.555Z,22.69
2023-05-20T14:09:28.568Z,22.32
2023-05-20T14:14:36.743Z,22.42
2023-05-20T14:19:44.999Z,22.22
2023-05-20T14:24:53.042Z,22.31
2023-05-20T14:30:01.196Z,22.26
2023-05-20T14:35:11.184Z,22.22
2023-05-20T14:40:19.313Z,22.17
2023-05-20T14:45:27.347Z,22.26
2023-05-20T14:50:35.740Z,21.98
2023-05-20T14:55:44.216Z,21.81
2023-05-20T15:00:53.757Z,21.59
2023-05-20T15:06:02.449Z,21.47
2023-05-20T15:11:10.487Z,21.46
2023-05-20T15:16:19.498Z,21.23
2023-05-20T15:21:34.880Z,21.08
2023-05-20T15:26:43.167Z,21.14
2023-05-20T15:31:51.732Z,21.04
2023-05-20T15:36:59.710Z,21.12
2023-05-20T15:42:07.947Z,21.20
2023-05-20T15:47:15.990Z,21.32
2023-05-20T15:52:24.079Z,21.25
2023-05-20T15:57:32.130Z,21.17
2023-05-20T16:02:41.546Z,21.22
2023-05-20T16:07:51.091Z,21.13
2023-05-20T16:12:59.106Z,20.95
2023-05-20T16:18:09.213Z,20.91
2023-05-20T16:23:17.581Z,20.76
2023-05-20T16:28:25.895Z,20.63
2023-05-20T16:33:33.870Z,20.52
2023-05-20T16:38:41.920Z,20.39
2023-05-20T16:43:50.016Z,20.30
2023-05-20T16:48:58.290Z,20.28
2023-05-20T16:54:06.671Z,20.26
2023-05-20T16:59:16.982Z,20.22
2023-05-20T17:04:25.301Z,20.19
2023-05-20T17:09:33.326Z,20.16
2023-05-20T17:14:41.360Z,20.15
2023-05-20T17:19:49.434Z,20.15
2023-05-20T17:24:57.578Z,20.12
2023-05-20T17:30:06.277Z,20.07
2023-05-20T17:35:14.263Z,20.01
2023-05-20T17:40:22.535Z,19.94
2023-05-20T17:45:30.772Z,19.89
2023-05-20T17:50:38.867Z,19.91
2023-05-20T17:55:47.770Z,20.05
2023-05-20T18:00:55.825Z,20.08
2023-05-20T18:06:05.742Z,20.07
2023-05-20T18:11:13.787Z,19.95
2023-05-20T18:16:21.861Z,19.76
2023-05-20T18:21:29.875Z,19.56
2023-05-20T18:26:38.607Z,19.35
2023-05-20T18:31:46.714Z,19.12
2023-05-20T18:36:55.048Z,18.81
2023-05-20T18:42:03.051Z,18.57
2023-05-20T18:47:11.192Z,18.38
2023-05-20T18:52:19.497Z,18.23
2023-05-20T18:57:27.540Z,18.01
2023-05-20T19:02:35.576Z,17.64
2023-05-20T19:07:43.776Z,17.30
2023-05-20T19:12:51.842Z,17.04
2023-05-20T19:17:59.917Z,16.95
2023-05-20T19:23:07.919Z,16.86
2023-05-20T19:28:16.027Z,16.76
2023-05-20T19:33:24.103Z,16.60
2023-05-20T19:38:32.147Z,16.39
2023-05-20T19:43:40.192Z,16.31
2023-05-20T19:48:48.218Z,16.26
2023-05-20T19:53:56.246Z,16.14
2023-05-20T19:59:07.218Z,15.89
2023-05-20T20:04:17.217Z,15.72
2023-05-20T20:09:25.261Z,15.71
2023-05-20T20:14:33.831Z,15.62
2023-05-20T20:19:42.354Z,15.47
2023-05-20T20:24:51.024Z,15.34
2023-05-20T20:29:59.003Z,15.34
2023-05-20T20:35:08.165Z,15.28
2023-05-20T20:40:16.590Z,15.09
2023-05-20T20:45:24.697Z,14.97
2023-05-20T20:50:33.976Z,14.92
2023-05-20T20:55:43.204Z,14.96
2023-05-20T21:00:53.231Z,14.84
2023-05-20T21:06:02.649Z,14.71
2023-05-20T21:11:19.556Z,14.64
2023-05-20T21:16:27.563Z,14.60
2023-05-20T21:21:36.442Z,14.51
2023-05-20T21:26:44.489Z,14.45
2023-05-20T21:32:10.085Z,14.41
2023-05-20T21:37:18.116Z,14.40
2023-05-20T21:42:26.421Z,14.30
2023-05-20T21:47:34.404Z,14.27
2023-05-20T21:52:42.476Z,14.23
2023-05-20T21:57:50.532Z,14.16
2023-05-20T22:02:58.628Z,14.05
2023-05-20T22:08:07.675Z,14.05
2023-05-20T22:13:15.735Z,13.91
2023-05-20T22:18:24.446Z,13.80
2023-05-20T22:23:32.496Z,13.76
2023-05-20T22:28:40.490Z,13.69
2023-05-20T22:33:48.482Z,13.64
2023-05-20T22:38:56.437Z,13.53
2023-05-20T22:44:05.721Z,13.42
2023-05-20T22:49:14.657Z,13.38
2023-05-20T22:54:22.734Z,13.40
2023-05-20T22:59:31.962Z,13.35
2023-05-20T23:04:41.538Z,13.27
2023-05-20T23:09:49.618Z,13.33
2023-05-20T23:14:57.635Z,13.26
2023-05-20T23:20:11.042Z,13.10
2023-05-20T23:25:19.496Z,13.26
2023-05-20T23:30:27.685Z,13.31
2023-05-20T23:35:36.008Z,13.25
2023-05-20T23:40:44.227Z,13.25
2023-05-20T23:45:53.248Z,13.22
2023-05-20T23:51:01.381Z,13.22
2023-05-20T23:56:10.198Z,13.12
